sensor_id;sensor_type;location;lat;lon;timestamp;pressure;altitude;pressure_sealevel;temperature;humidity
43119;BME280;28729;49.838;8.650;2023-02-15T00:03:22;101283.59;;;2.50;100.00
43119;BME280;28729;49.838;8.650;2023-02-15T00:07:24;101279.16;;;2.49;100.00
43119;BME280;28729;49.838;8.650;2023-02-15T00:11:26;101276.28;;;2.51;100.00
43119;BME280;28729;49.838;8.650;2023-02-15T00:15:51;101276.06;;;2.44;100.00
43119;BME280;28729;49.838;8.650;2023-02-15T00:19:53;101275.69;;;2.39;100.00
43119;BME280;28729;49.838;8.650;2023-02-15T00:23:56;101268.38;;;2.40;100.00
43119;BME280;28729;49.838;8.650;2023-02-15T00:27:59;101263.78;;;2.40;100.00
43119;BME280;28729;49.838;8.650;2023-02-15T00:32:01;101256.66;;;2.39;100.00
43119;BME280;28729;49.838;8.650;2023-02-15T00:36:03;101255.63;;;2.40;100.00
43119;BME280;28729;49.838;8.650;2023-02-15T00:40:06;101257.81;;;2.37;100.00
43119;BME280;28729;49.838;8.650;2023-02-15T00:44:08;101249.47;;;2.30;100.00
43119;BME280;28729;49.838;8.650;2023-02-15T00:48:09;101261.50;;;2.27;100.00
43119;BME280;28729;49.838;8.650;2023-02-15T00:52:11;101249.25;;;2.23;100.00
43119;BME280;28729;49.838;8.650;2023-02-15T00:56:13;101251.41;;;2.20;100.00
43119;BME280;28729;49.838;8.650;2023-02-15T01:00:15;101251.09;;;2.23;100.00
43119;BME280;28729;49.838;8.650;2023-02-15T01:04:16;101258.25;;;2.24;100.00
43119;BME280;28729;49.838;8.650;2023-02-15T01:08:18;101248.44;;;2.31;100.00
43119;BME280;28729;49.838;8.650;2023-02-15T01:12:20;101242.84;;;2.33;100.00
43119;BME280;28729;49.838;8.650;2023-02-15T01:16:23;101246.75;;;2.30;100.00
43119;BME280;28729;49.838;8.650;2023-02-15T01:20:29;101237.72;;;2.30;100.00
43119;BME280;28729;49.838;8.650;2023-02-15T01:24:31;101238.56;;;2.30;100.00
43119;BME280;28729;49.838;8.650;2023-02-15T01:28:32;101237.34;;;2.24;100.00
43119;BME280;28729;49.838;8.650;2023-02-15T01:32:35;101244.66;;;2.24;100.00
43119;BME280;28729;49.838;8.650;2023-02-15T01:36:36;101243.19;;;2.30;100.00
43119;BME280;28729;49.838;8.650;2023-02-15T01:40:38;101238.56;;;2.30;100.00
43119;BME280;28729;49.838;8.650;2023-02-15T01:44:47;101231.97;;;2.33;100.00
43119;BME280;28729;49.838;8.650;2023-02-15T01:49:00;101229.25;;;2.33;100.00
43119;BME280;28729;49.838;8.650;2023-02-15T01:53:17;101224.47;;;2.26;100.00
43119;BME280;28729;49.838;8.650;2023-02-15T01:57:23;101222.41;;;2.28;100.00
43119;BME280;28729;49.838;8.650;2023-02-15T02:01:27;101215.66;;;2.33;100.00
43119;BME280;28729;49.838;8.650;2023-02-15T02:05:32;101223.47;;;2.36;100.00
43119;BME280;28729;49.838;8.650;2023-02-15T02:09:34;101226.03;;;2.37;100.00
43119;BME280;28729;49.838;8.650;2023-02-15T02:13:35;101228.88;;;2.27;100.00
43119;BME280;28729;49.838;8.650;2023-02-15T02:22:04;101215.72;;;2.15;100.00
43119;BME280;28729;49.838;8.650;2023-02-15T02:30:47;101213.41;;;2.02;100.00
43119;BME280;28729;49.838;8.650;2023-02-15T02:35:16;101208.78;;;1.94;100.00
43119;BME280;28729;49.838;8.650;2023-02-15T02:47:59;101204.25;;;2.03;100.00
43119;BME280;28729;49.838;8.650;2023-02-15T02:57:07;101196.69;;;1.89;100.00
43119;BME280;28729;49.838;8.650;2023-02-15T03:01:14;101194.22;;;1.77;100.00
43119;BME280;28729;49.838;8.650;2023-02-15T03:05:21;101188.78;;;1.77;100.00
43119;BME280;28729;49.838;8.650;2023-02-15T03:09:29;101189.31;;;1.81;100.00
43119;BME280;28729;49.838;8.650;2023-02-15T03:13:44;101182.28;;;1.70;100.00
43119;BME280;28729;49.838;8.650;2023-02-15T03:17:57;101187.34;;;1.65;100.00
43119;BME280;28729;49.838;8.650;2023-02-15T03:22:18;101182.09;;;1.72;100.00
43119;BME280;28729;49.838;8.650;2023-02-15T03:26:22;101186.38;;;1.74;100.00
43119;BME280;28729;49.838;8.650;2023-02-15T03:30:28;101189.28;;;1.73;100.00
43119;BME280;28729;49.838;8.650;2023-02-15T03:34:31;101178.84;;;1.68;100.00
43119;BME280;28729;49.838;8.650;2023-02-15T03:38:42;101189.41;;;1.71;100.00
43119;BME280;28729;49.838;8.650;2023-02-15T03:43:01;101182.59;;;1.67;100.00
43119;BME280;28729;49.838;8.650;2023-02-15T03:47:09;101181.50;;;1.60;100.00
43119;BME280;28729;49.838;8.650;2023-02-15T03:51:17;101186.94;;;1.60;100.00
43119;BME280;28729;49.838;8.650;2023-02-15T03:55:36;101184.19;;;1.52;100.00
43119;BME280;28729;49.838;8.650;2023-02-15T03:59:37;101184.97;;;1.44;100.00
43119;BME280;28729;49.838;8.650;2023-02-15T04:04:03;101193.25;;;1.43;100.00
43119;BME280;28729;49.838;8.650;2023-02-15T04:08:08;101188.84;;;1.42;100.00
43119;BME280;28729;49.838;8.650;2023-02-15T04:12:10;101187.66;;;1.44;100.00
43119;BME280;28729;49.838;8.650;2023-02-15T04:16:11;101188.59;;;1.53;100.00
43119;BME280;28729;49.838;8.650;2023-02-15T04:20:13;101176.50;;;1.47;100.00
43119;BME280;28729;49.838;8.650;2023-02-15T04:24:33;101163.94;;;1.46;100.00
43119;BME280;28729;49.838;8.650;2023-02-15T04:28:54;101167.59;;;1.37;100.00
43119;BME280;28729;49.838;8.650;2023-02-15T04:32:55;101168.13;;;1.23;100.00
43119;BME280;28729;49.838;8.650;2023-02-15T04:36:58;101163.56;;;1.23;100.00
43119;BME280;28729;49.838;8.650;2023-02-15T04:41:00;101160.97;;;1.22;100.00
43119;BME280;28729;49.838;8.650;2023-02-15T04:45:02;101175.13;;;1.25;100.00
43119;BME280;28729;49.838;8.650;2023-02-15T04:49:04;101175.13;;;1.25;100.00
43119;BME280;28729;49.838;8.650;2023-02-15T04:53:06;101172.09;;;1.28;100.00
43119;BME280;28729;49.838;8.650;2023-02-15T04:57:08;101175.13;;;1.25;100.00
43119;BME280;28729;49.838;8.650;2023-02-15T05:01:10;101170.06;;;1.30;100.00
43119;BME280;28729;49.838;8.650;2023-02-15T05:05:11;101165.88;;;1.36;100.00
43119;BME280;28729;49.838;8.650;2023-02-15T05:09:14;101163.53;;;1.41;100.00
43119;BME280;28729;49.838;8.650;2023-02-15T05:13:16;101161.69;;;1.42;100.00
43119;BME280;28729;49.838;8.650;2023-02-15T05:17:18;101171.38;;;1.44;100.00
43119;BME280;28729;49.838;8.650;2023-02-15T05:21:19;101161.34;;;1.45;100.00
43119;BME280;28729;49.838;8.650;2023-02-15T05:25:21;101162.22;;;1.45;100.00
43119;BME280;28729;49.838;8.650;2023-02-15T05:29:48;101159.88;;;1.50;100.00
43119;BME280;28729;49.838;8.650;2023-02-15T05:33:50;101155.28;;;1.51;100.00
43119;BME280;28729;49.838;8.650;2023-02-15T05:37:52;101157.63;;;1.46;100.00
43119;BME280;28729;49.838;8.650;2023-02-15T05:41:54;101152.56;;;1.51;100.00
43119;BME280;28729;49.838;8.650;2023-02-15T05:46:00;101156.00;;;1.53;100.00
43119;BME280;28729;49.838;8.650;2023-02-15T05:50:02;101159.09;;;1.58;100.00
43119;BME280;28729;49.838;8.650;2023-02-15T05:54:04;101160.78;;;1.59;100.00
43119;BME280;28729;49.838;8.650;2023-02-15T05:58:06;101162.16;;;1.63;100.00
43119;BME280;28729;49.838;8.650;2023-02-15T06:02:09;101165.91;;;1.62;100.00
43119;BME280;28729;49.838;8.650;2023-02-15T06:06:11;101165.38;;;1.58;100.00
43119;BME280;28729;49.838;8.650;2023-02-15T06:10:12;101171.66;;;1.59;100.00
43119;BME280;28729;49.838;8.650;2023-02-15T06:14:14;101178.78;;;1.60;100.00
43119;BME280;28729;49.838;8.650;2023-02-15T06:18:16;101172.50;;;1.59;100.00
43119;BME280;28729;49.838;8.650;2023-02-15T06:22:17;101177.81;;;1.61;100.00
43119;BME280;28729;49.838;8.650;2023-02-15T06:26:19;101178.97;;;1.58;100.00
43119;BME280;28729;49.838;8.650;2023-02-15T06:30:21;101175.84;;;1.53;100.00
43119;BME280;28729;49.838;8.650;2023-02-15T06:34:23;101183.00;;;1.54;100.00
43119;BME280;28729;49.838;8.650;2023-02-15T06:38:25;101186.41;;;1.56;100.00
43119;BME280;28729;49.838;8.650;2023-02-15T06:42:27;101184.22;;;1.60;100.00
43119;BME280;28729;49.838;8.650;2023-02-15T06:46:29;101192.94;;;1.64;100.00
43119;BME280;28729;49.838;8.650;2023-02-15T06:50:31;101186.00;;;1.69;100.00
43119;BME280;28729;49.838;8.650;2023-02-15T06:54:33;101199.97;;;1.74;100.00
43119;BME280;28729;49.838;8.650;2023-02-15T06:58:39;101203.38;;;1.76;100.00
43119;BME280;28729;49.838;8.650;2023-02-15T07:02:41;101217.97;;;1.75;100.00
43119;BME280;28729;49.838;8.650;2023-02-15T07:06:43;101217.75;;;1.69;100.00
43119;BME280;28729;49.838;8.650;2023-02-15T07:10:49;101212.53;;;1.75;100.00
43119;BME280;28729;49.838;8.650;2023-02-15T07:14:51;101209.22;;;1.81;100.00
43119;BME280;28729;49.838;8.650;2023-02-15T07:18:54;101208.56;;;1.88;100.00
43119;BME280;28729;49.838;8.650;2023-02-15T07:22:55;101199.78;;;1.94;100.00
43119;BME280;28729;49.838;8.650;2023-02-15T07:26:57;101197.09;;;2.02;100.00
43119;BME280;28729;49.838;8.650;2023-02-15T07:31:03;101190.34;;;2.06;100.00
43119;BME280;28729;49.838;8.650;2023-02-15T07:35:06;101184.97;;;2.14;100.00
43119;BME280;28729;49.838;8.650;2023-02-15T07:39:10;101186.31;;;2.18;100.00
43119;BME280;28729;49.838;8.650;2023-02-15T07:43:12;101191.75;;;2.18;100.00
43119;BME280;28729;49.838;8.650;2023-02-15T07:47:15;101182.53;;;2.11;100.00
43119;BME280;28729;49.838;8.650;2023-02-15T07:51:17;101193.72;;;2.08;100.00
43119;BME280;28729;49.838;8.650;2023-02-15T07:55:18;101190.16;;;2.08;100.00
43119;BME280;28729;49.838;8.650;2023-02-15T07:59:23;101182.84;;;2.08;100.00
43119;BME280;28729;49.838;8.650;2023-02-15T08:03:27;101189.38;;;2.15;100.00
43119;BME280;28729;49.838;8.650;2023-02-15T08:07:31;101189.91;;;2.19;100.00
43119;BME280;28729;49.838;8.650;2023-02-15T08:11:35;101190.75;;;2.19;100.00
43119;BME280;28729;49.838;8.650;2023-02-15T08:15:49;101184.66;;;2.25;100.00
43119;BME280;28729;49.838;8.650;2023-02-15T08:19:51;101191.50;;;2.30;100.00
43119;BME280;28729;49.838;8.650;2023-02-15T08:23:53;101184.38;;;2.37;100.00
43119;BME280;28729;49.838;8.650;2023-02-15T08:27:55;101177.25;;;2.36;100.00
43119;BME280;28729;49.838;8.650;2023-02-15T08:32:05;101171.44;;;2.31;100.00
43119;BME280;28729;49.838;8.650;2023-02-15T08:36:17;101170.97;;;2.43;100.00
43119;BME280;28729;49.838;8.650;2023-02-15T08:40:20;101164.53;;;2.44;100.00
43119;BME280;28729;49.838;8.650;2023-02-15T08:44:22;101164.75;;;2.59;100.00
43119;BME280;28729;49.838;8.650;2023-02-15T08:48:24;101153.38;;;2.72;100.00
43119;BME280;28729;49.838;8.650;2023-02-15T08:52:26;101160.03;;;2.78;100.00
43119;BME280;28729;49.838;8.650;2023-02-15T08:56:31;101151.38;;;2.82;100.00
43119;BME280;28729;49.838;8.650;2023-02-15T09:00:34;101139.66;;;2.90;100.00
43119;BME280;28729;49.838;8.650;2023-02-15T09:04:38;101139.34;;;3.01;100.00
43119;BME280;28729;49.838;8.650;2023-02-15T09:08:40;101142.72;;;3.03;100.00
43119;BME280;28729;49.838;8.650;2023-02-15T09:12:42;101133.22;;;3.07;100.00
43119;BME280;28729;49.838;8.650;2023-02-15T09:16:45;101135.59;;;3.10;100.00
43119;BME280;28729;49.838;8.650;2023-02-15T09:20:47;101129.13;;;3.11;100.00
43119;BME280;28729;49.838;8.650;2023-02-15T09:25:12;101124.88;;;3.17;100.00
43119;BME280;28729;49.838;8.650;2023-02-15T09:29:16;101134.25;;;3.23;100.00
43119;BME280;28729;49.838;8.650;2023-02-15T09:33:17;101130.16;;;3.10;100.00
43119;BME280;28729;49.838;8.650;2023-02-15T09:37:21;101127.59;;;3.17;100.00
43119;BME280;28729;49.838;8.650;2023-02-15T09:46:16;101115.31;;;3.21;100.00
43119;BME280;28729;49.838;8.650;2023-02-15T09:50:36;101119.78;;;3.30;100.00
43119;BME280;28729;49.838;8.650;2023-02-15T10:03:21;101127.75;;;3.56;100.00
43119;BME280;28729;49.838;8.650;2023-02-15T10:12:17;101143.44;;;3.46;100.00
43119;BME280;28729;49.838;8.650;2023-02-15T10:24:55;101152.97;;;3.58;100.00
43119;BME280;28729;49.838;8.650;2023-02-15T10:29:34;101143.59;;;3.53;100.00
43119;BME280;28729;49.838;8.650;2023-02-15T10:33:40;101145.81;;;3.57;100.00
43119;BME280;28729;49.838;8.650;2023-02-15T10:42:24;101146.47;;;3.59;100.00
43119;BME280;28729;49.838;8.650;2023-02-15T10:55:16;101139.84;;;3.62;100.00
43119;BME280;28729;49.838;8.650;2023-02-15T10:59:42;101146.13;;;3.62;100.00
43119;BME280;28729;49.838;8.650;2023-02-15T11:04:00;101136.28;;;3.61;100.00
43119;BME280;28729;49.838;8.650;2023-02-15T11:08:09;101143.41;;;3.62;100.00
43119;BME280;28729;49.838;8.650;2023-02-15T11:16:45;101126.72;;;3.65;100.00
43119;BME280;28729;49.838;8.650;2023-02-15T11:21:02;101119.22;;;3.84;100.00
43119;BME280;28729;49.838;8.650;2023-02-15T11:25:17;101115.59;;;3.92;100.00
43119;BME280;28729;49.838;8.650;2023-02-15T11:29:25;101112.19;;;3.89;100.00
43119;BME280;28729;49.838;8.650;2023-02-15T11:33:33;101101.09;;;3.99;100.00
43119;BME280;28729;49.838;8.650;2023-02-15T11:38:16;101093.53;;;4.18;100.00
43119;BME280;28729;49.838;8.650;2023-02-15T11:42:24;101086.47;;;4.31;100.00
43119;BME280;28729;49.838;8.650;2023-02-15T11:46:27;101084.53;;;4.40;100.00
43119;BME280;28729;49.838;8.650;2023-02-15T11:50:31;101089.59;;;4.51;100.00
43119;BME280;28729;49.838;8.650;2023-02-15T11:54:36;101093.41;;;4.42;100.00
43119;BME280;28729;49.838;8.650;2023-02-15T11:58:47;101085.22;;;4.42;100.00
43119;BME280;28729;49.838;8.650;2023-02-15T12:02:53;101087.94;;;4.42;100.00
43119;BME280;28729;49.838;8.650;2023-02-15T12:07:04;101087.78;;;4.44;100.00
43119;BME280;28729;49.838;8.650;2023-02-15T12:11:18;101079.75;;;4.42;100.00
43119;BME280;28729;49.838;8.650;2023-02-15T12:15:30;101074.59;;;4.55;100.00
43119;BME280;28729;49.838;8.650;2023-02-15T12:19:39;101055.03;;;4.67;100.00
43119;BME280;28729;49.838;8.650;2023-02-15T12:23:46;101042.69;;;4.79;100.00
43119;BME280;28729;49.838;8.650;2023-02-15T12:27:49;101042.91;;;4.92;100.00
43119;BME280;28729;49.838;8.650;2023-02-15T12:31:52;101037.34;;;5.09;100.00
43119;BME280;28729;49.838;8.650;2023-02-15T12:36:00;101040.56;;;5.27;100.00
43119;BME280;28729;49.838;8.650;2023-02-15T12:40:26;101042.38;;;5.35;100.00
43119;BME280;28729;49.838;8.650;2023-02-15T12:44:36;101029.47;;;5.43;100.00
43119;BME280;28729;49.838;8.650;2023-02-15T12:48:38;101030.59;;;5.49;100.00
43119;BME280;28729;49.838;8.650;2023-02-15T12:52:41;101024.59;;;5.54;100.00
43119;BME280;28729;49.838;8.650;2023-02-15T12:56:43;101030.25;;;5.67;100.00
43119;BME280;28729;49.838;8.650;2023-02-15T13:00:46;101020.91;;;5.76;100.00
43119;BME280;28729;49.838;8.650;2023-02-15T13:04:49;101010.63;;;5.78;100.00
43119;BME280;28729;49.838;8.650;2023-02-15T13:08:53;101005.91;;;5.87;100.00
43119;BME280;28729;49.838;8.650;2023-02-15T13:12:56;100990.91;;;5.98;100.00
43119;BME280;28729;49.838;8.650;2023-02-15T13:17:01;100992.16;;;6.10;100.00
43119;BME280;28729;49.838;8.650;2023-02-15T13:21:12;100984.97;;;6.09;100.00
43119;BME280;28729;49.838;8.650;2023-02-15T13:25:21;100974.97;;;6.16;100.00
43119;BME280;28729;49.838;8.650;2023-02-15T13:29:28;100980.56;;;6.29;100.00
43119;BME280;28729;49.838;8.650;2023-02-15T13:33:33;100982.88;;;6.47;100.00
43119;BME280;28729;49.838;8.650;2023-02-15T13:37:48;100974.22;;;6.65;100.00
43119;BME280;28729;49.838;8.650;2023-02-15T13:50:28;100960.91;;;6.62;96.67
43119;BME280;28729;49.838;8.650;2023-02-15T13:59:22;100960.84;;;6.34;98.47
43119;BME280;28729;49.838;8.650;2023-02-15T14:03:51;100951.19;;;6.38;99.90
43119;BME280;28729;49.838;8.650;2023-02-15T14:17:04;100928.84;;;6.34;98.91
43119;BME280;28729;49.838;8.650;2023-02-15T14:33:55;100935.72;;;6.30;99.08
43119;BME280;28729;49.838;8.650;2023-02-15T14:42:20;100944.22;;;5.84;98.95
43119;BME280;28729;49.838;8.650;2023-02-15T14:51:00;100927.72;;;5.92;100.00
43119;BME280;28729;49.838;8.650;2023-02-15T14:55:06;100928.59;;;5.78;100.00
43119;BME280;28729;49.838;8.650;2023-02-15T14:59:16;100930.50;;;5.63;100.00
43119;BME280;28729;49.838;8.650;2023-02-15T15:03:23;100942.00;;;5.43;100.00
43119;BME280;28729;49.838;8.650;2023-02-15T15:07:37;100932.19;;;5.34;100.00
43119;BME280;28729;49.838;8.650;2023-02-15T15:11:45;100936.13;;;5.17;100.00
43119;BME280;28729;49.838;8.650;2023-02-15T15:15:52;100933.84;;;5.06;100.00
43119;BME280;28729;49.838;8.650;2023-02-15T15:23:56;100926.00;;;4.88;100.00
43119;BME280;28729;49.838;8.650;2023-02-15T15:27:57;100921.41;;;4.88;100.00
43119;BME280;28729;49.838;8.650;2023-02-15T15:31:59;100926.66;;;4.75;100.00
43119;BME280;28729;49.838;8.650;2023-02-15T15:49:18;100928.56;;;4.28;100.00
43119;BME280;28729;49.838;8.650;2023-02-15T15:53:23;100929.41;;;4.29;100.00
43119;BME280;28729;49.838;8.650;2023-02-15T15:57:37;100931.34;;;4.20;100.00
43119;BME280;28729;49.838;8.650;2023-02-15T16:01:42;100933.03;;;4.21;100.00
43119;BME280;28729;49.838;8.650;2023-02-15T16:05:45;100935.81;;;4.13;100.00
43119;BME280;28729;49.838;8.650;2023-02-15T16:14:02;100939.84;;;3.94;100.00
43119;BME280;28729;49.838;8.650;2023-02-15T16:18:03;100931.06;;;3.84;100.00
43119;BME280;28729;49.838;8.650;2023-02-15T16:22:15;100932.06;;;3.83;100.00
43119;BME280;28729;49.838;8.650;2023-02-15T16:30:45;100939.31;;;3.68;100.00
43119;BME280;28729;49.838;8.650;2023-02-15T16:34:58;100935.91;;;3.65;100.00
43119;BME280;28729;49.838;8.650;2023-02-15T16:39:10;100933.19;;;3.65;100.00
43119;BME280;28729;49.838;8.650;2023-02-15T16:43:22;100922.13;;;3.67;100.00
43119;BME280;28729;49.838;8.650;2023-02-15T16:47:28;100912.25;;;3.66;100.00
43119;BME280;28729;49.838;8.650;2023-02-15T16:51:32;100927.06;;;3.63;100.00
43119;BME280;28729;49.838;8.650;2023-02-15T16:55:39;100928.06;;;3.62;100.00
43119;BME280;28729;49.838;8.650;2023-02-15T16:59:46;100924.88;;;3.59;100.00
43119;BME280;28729;49.838;8.650;2023-02-15T17:04:13;100931.00;;;3.61;100.00
43119;BME280;28729;49.838;8.650;2023-02-15T17:08:34;100932.03;;;3.60;100.00
43119;BME280;28729;49.838;8.650;2023-02-15T17:12:45;100938.00;;;3.55;100.00
43119;BME280;28729;49.838;8.650;2023-02-15T17:16:53;100936.63;;;3.59;100.00
43119;BME280;28729;49.838;8.650;2023-02-15T17:20:58;100939.84;;;3.63;100.00
43119;BME280;28729;49.838;8.650;2023-02-15T17:25:02;100938.81;;;3.64;100.00
43119;BME280;28729;49.838;8.650;2023-02-15T17:33:24;100955.19;;;3.64;100.00
43119;BME280;28729;49.838;8.650;2023-02-15T17:37:42;100954.34;;;3.63;100.00
43119;BME280;28729;49.838;8.650;2023-02-15T17:41:46;100950.44;;;3.58;100.00
43119;BME280;28729;49.838;8.650;2023-02-15T17:45:49;100953.31;;;3.56;100.00
43119;BME280;28729;49.838;8.650;2023-02-15T17:49:52;100947.03;;;3.56;100.00
43119;BME280;28729;49.838;8.650;2023-02-15T17:53:54;100944.84;;;3.51;100.00
43119;BME280;28729;49.838;8.650;2023-02-15T17:58:16;100941.59;;;3.48;100.00
43119;BME280;28729;49.838;8.650;2023-02-15T18:02:19;100944.50;;;3.46;100.00
43119;BME280;28729;49.838;8.650;2023-02-15T18:06:42;100946.03;;;3.49;100.00
43119;BME280;28729;49.838;8.650;2023-02-15T18:11:03;100943.13;;;3.50;100.00
43119;BME280;28729;49.838;8.650;2023-02-15T18:15:23;100938.34;;;3.52;100.00
43119;BME280;28729;49.838;8.650;2023-02-15T18:19:25;100937.66;;;3.58;100.00
43119;BME280;28729;49.838;8.650;2023-02-15T18:23:28;100940.69;;;3.63;100.00
43119;BME280;28729;49.838;8.650;2023-02-15T18:27:29;100943.06;;;3.67;100.00
43119;BME280;28729;49.838;8.650;2023-02-15T18:31:31;100925.53;;;3.69;100.00
43119;BME280;28729;49.838;8.650;2023-02-15T18:35:32;100924.28;;;3.72;100.00
43119;BME280;28729;49.838;8.650;2023-02-15T18:39:38;100930.44;;;3.65;100.00
43119;BME280;28729;49.838;8.650;2023-02-15T18:43:41;100921.25;;;3.67;100.00
43119;BME280;28729;49.838;8.650;2023-02-15T18:47:44;100918.34;;;3.68;100.00
43119;BME280;28729;49.838;8.650;2023-02-15T18:51:46;100914.78;;;3.68;100.00
43119;BME280;28729;49.838;8.650;2023-02-15T18:55:48;100922.28;;;3.65;100.00
43119;BME280;28729;49.838;8.650;2023-02-15T18:59:52;100911.91;;;3.61;100.00
43119;BME280;28729;49.838;8.650;2023-02-15T19:03:53;100921.47;;;3.57;100.00
43119;BME280;28729;49.838;8.650;2023-02-15T19:07:56;100930.50;;;3.57;100.00
43119;BME280;28729;49.838;8.650;2023-02-15T19:11:59;100927.25;;;3.62;100.00
43119;BME280;28729;49.838;8.650;2023-02-15T19:16:01;100914.28;;;3.64;100.00
43119;BME280;28729;49.838;8.650;2023-02-15T19:20:03;100912.25;;;3.66;100.00
43119;BME280;28729;49.838;8.650;2023-02-15T19:24:07;100914.63;;;3.69;100.00
43119;BME280;28729;49.838;8.650;2023-02-15T19:28:33;100913.38;;;3.72;100.00
43119;BME280;28729;49.838;8.650;2023-02-15T19:32:36;100915.09;;;3.73;100.00
43119;BME280;28729;49.838;8.650;2023-02-15T19:36:39;100918.84;;;3.72;100.00
43119;BME280;28729;49.838;8.650;2023-02-15T19:40:41;100913.03;;;3.75;100.00
43119;BME280;28729;49.838;8.650;2023-02-15T19:44:42;100920.88;;;3.78;100.00
43119;BME280;28729;49.838;8.650;2023-02-15T19:48:45;100927.69;;;3.74;100.00
43119;BME280;28729;49.838;8.650;2023-02-15T19:52:47;100918.41;;;3.60;100.00
43119;BME280;28729;49.838;8.650;2023-02-15T19:56:49;100929.69;;;3.49;100.00
43119;BME280;28729;49.838;8.650;2023-02-15T20:00:50;100924.44;;;3.39;100.00
43119;BME280;28729;49.838;8.650;2023-02-15T20:04:52;100926.50;;;3.37;100.00
43119;BME280;28729;49.838;8.650;2023-02-15T20:08:54;100924.78;;;3.36;100.00
43119;BME280;28729;49.838;8.650;2023-02-15T20:12:57;100937.03;;;3.40;100.00
43119;BME280;28729;49.838;8.650;2023-02-15T20:17:01;100933.63;;;3.38;100.00
43119;BME280;28729;49.838;8.650;2023-02-15T20:21:03;100927.00;;;3.40;100.00
43119;BME280;28729;49.838;8.650;2023-02-15T20:25:05;100929.84;;;3.47;100.00
43119;BME280;28729;49.838;8.650;2023-02-15T20:29:15;100929.34;;;3.52;100.00
43119;BME280;28729;49.838;8.650;2023-02-15T20:33:18;100936.13;;;3.56;100.00
43119;BME280;28729;49.838;8.650;2023-02-15T20:37:21;100931.72;;;3.47;100.00
43119;BME280;28729;49.838;8.650;2023-02-15T20:41:23;100939.09;;;3.38;100.00
43119;BME280;28729;49.838;8.650;2023-02-15T20:45:38;100938.25;;;3.37;100.00
43119;BME280;28729;49.838;8.650;2023-02-15T20:49:39;100934.31;;;3.40;100.00
43119;BME280;28729;49.838;8.650;2023-02-15T20:53:41;100922.53;;;3.48;100.00
43119;BME280;28729;49.838;8.650;2023-02-15T20:57:43;100924.03;;;3.58;100.00
43119;BME280;28729;49.838;8.650;2023-02-15T21:01:46;100921.13;;;3.60;100.00
43119;BME280;28729;49.838;8.650;2023-02-15T21:05:47;100932.88;;;3.60;100.00
43119;BME280;28729;49.838;8.650;2023-02-15T21:09:50;100936.97;;;3.56;100.00
43119;BME280;28729;49.838;8.650;2023-02-15T21:13:52;100942.78;;;3.53;100.00
43119;BME280;28729;49.838;8.650;2023-02-15T21:17:55;100937.88;;;3.40;100.00
43119;BME280;28729;49.838;8.650;2023-02-15T21:21:59;100934.97;;;3.42;100.00
43119;BME280;28729;49.838;8.650;2023-02-15T21:26:01;100935.50;;;3.46;100.00
43119;BME280;28729;49.838;8.650;2023-02-15T21:30:16;100925.78;;;3.43;100.00
43119;BME280;28729;49.838;8.650;2023-02-15T21:34:19;100935.50;;;3.46;100.00
43119;BME280;28729;49.838;8.650;2023-02-15T21:38:22;100932.22;;;3.50;100.00
43119;BME280;28729;49.838;8.650;2023-02-15T21:42:26;100939.03;;;3.54;100.00
43119;BME280;28729;49.838;8.650;2023-02-15T21:46:46;100936.97;;;3.56;100.00
43119;BME280;28729;49.838;8.650;2023-02-15T21:51:07;100932.03;;;3.60;100.00
43119;BME280;28729;49.838;8.650;2023-02-15T21:55:27;100936.94;;;3.64;100.00
43119;BME280;28729;49.838;8.650;2023-02-15T21:59:28;100938.63;;;3.65;100.00
43119;BME280;28729;49.838;8.650;2023-02-15T22:03:35;100943.06;;;3.67;100.00
43119;BME280;28729;49.838;8.650;2023-02-15T22:07:37;100941.56;;;3.64;100.00
43119;BME280;28729;49.838;8.650;2023-02-15T22:11:39;100931.69;;;3.63;100.00
43119;BME280;28729;49.838;8.650;2023-02-15T22:15:41;100927.91;;;3.64;100.00
43119;BME280;28729;49.838;8.650;2023-02-15T22:19:44;100917.84;;;3.64;100.00
43119;BME280;28729;49.838;8.650;2023-02-15T22:23:46;100913.09;;;3.67;100.00
43119;BME280;28729;49.838;8.650;2023-02-15T22:27:49;100914.78;;;3.68;100.00
43119;BME280;28729;49.838;8.650;2023-02-15T22:31:52;100913.94;;;3.67;100.00
43119;BME280;28729;49.838;8.650;2023-02-15T22:35:55;100922.63;;;3.62;100.00
43119;BME280;28729;49.838;8.650;2023-02-15T22:39:56;100922.84;;;3.53;100.00
43119;BME280;28729;49.838;8.650;2023-02-15T22:43:58;100920.00;;;3.38;100.00
43119;BME280;28729;49.838;8.650;2023-02-15T22:48:01;100916.31;;;3.31;100.00
43119;BME280;28729;49.838;8.650;2023-02-15T22:52:05;100912.56;;;3.24;100.00
43119;BME280;28729;49.838;8.650;2023-02-15T22:56:11;100921.06;;;3.29;100.00
43119;BME280;28729;49.838;8.650;2023-02-15T23:00:17;100913.22;;;3.34;100.00
43119;BME280;28729;49.838;8.650;2023-02-15T23:04:21;100907.09;;;3.32;100.00
43119;BME280;28729;49.838;8.650;2023-02-15T23:08:23;100912.06;;;3.28;100.00
43119;BME280;28729;49.838;8.650;2023-02-15T23:12:28;100896.91;;;3.26;100.00
43119;BME280;28729;49.838;8.650;2023-02-15T23:16:52;100904.91;;;3.27;100.00
43119;BME280;28729;49.838;8.650;2023-02-15T23:21:00;100910.03;;;3.22;100.00
43119;BME280;28729;49.838;8.650;2023-02-15T23:25:04;100914.31;;;3.16;100.00
43119;BME280;28729;49.838;8.650;2023-02-15T23:29:12;100905.28;;;3.08;100.00
43119;BME280;28729;49.838;8.650;2023-02-15T23:33:14;100916.03;;;3.01;100.00
43119;BME280;28729;49.838;8.650;2023-02-15T23:37:16;100905.31;;;3.00;100.00
43119;BME280;28729;49.838;8.650;2023-02-15T23:41:22;100912.84;;;2.89;100.00
43119;BME280;28729;49.838;8.650;2023-02-15T23:45:24;100899.56;;;2.86;100.00
43119;BME280;28729;49.838;8.650;2023-02-15T23:49:26;100899.72;;;2.93;100.00